createdAt,value
2024-04-18T00:01:38.208Z,71.50
2024-04-18T00:04:05.471Z,71.60
2024-04-18T00:06:33.744Z,71.90
2024-04-18T00:09:00.956Z,72.40
2024-04-18T00:11:28.290Z,72.30
2024-04-18T00:13:55.388Z,72.40
2024-04-18T00:16:49.016Z,72.50
2024-04-18T00:19:16.792Z,72.50
2024-04-18T00:21:57.927Z,71.20
2024-04-18T00:24:30.848Z,70.20
2024-04-18T00:26:58.229Z,69.90
2024-04-18T00:29:37.642Z,69.60
2024-04-18T00:32:11.536Z,69.40
2024-04-18T00:34:38.813Z,69.60
2024-04-18T00:37:06.025Z,69.50
2024-04-18T00:39:51.884Z,69.90
2024-04-18T00:42:39.426Z,70.70
2024-04-18T00:45:07.572Z,71.60
2024-04-18T00:47:49.604Z,72.00
2024-04-18T00:50:18.065Z,72.90
2024-04-18T00:52:45.776Z,73.00
2024-04-18T00:55:30.270Z,73.40
2024-04-18T00:58:12.329Z,73.70
2024-04-18T01:00:43.969Z,73.80
2024-04-18T01:03:30.352Z,74.20
2024-04-18T01:06:10.698Z,75.00
2024-04-18T01:08:57.511Z,75.30
2024-04-18T01:11:32.029Z,75.40
2024-04-18T01:14:12.595Z,75.70
2024-04-18T01:16:58.349Z,76.00
2024-04-18T01:19:25.658Z,75.30
2024-04-18T01:21:53.780Z,76.40
2024-04-18T01:24:21.107Z,77.50
2024-04-18T01:26:48.350Z,78.40
2024-04-18T01:29:15.413Z,78.00
2024-04-18T01:32:08.547Z,78.20
2024-04-18T01:34:35.747Z,77.80
2024-04-18T01:37:17.822Z,77.90
2024-04-18T01:39:46.041Z,78.10
2024-04-18T01:42:13.421Z,78.50
2024-04-18T01:44:48.160Z,78.70
2024-04-18T01:47:33.820Z,78.90
2024-04-18T01:50:07.601Z,79.10
2024-04-18T01:52:34.706Z,79.50
2024-04-18T01:55:08.983Z,79.80
2024-04-18T01:57:37.191Z,80.40
2024-04-18T02:00:23.045Z,80.40
2024-04-18T02:02:50.314Z,80.60
2024-04-18T02:05:35.821Z,80.50
2024-04-18T02:08:15.198Z,80.90
2024-04-18T02:10:45.711Z,80.30
2024-04-18T02:13:36.141Z,79.70
2024-04-18T02:16:03.545Z,79.50
2024-04-18T02:18:49.735Z,79.40
2024-04-18T02:21:16.898Z,79.20
2024-04-18T02:23:53.333Z,79.50
2024-04-18T02:26:20.650Z,79.90
2024-04-18T02:28:47.815Z,80.20
2024-04-18T02:31:17.751Z,80.00
2024-04-18T02:33:51.233Z,80.80
2024-04-18T02:36:18.590Z,81.20
2024-04-18T02:38:45.767Z,82.30
2024-04-18T02:41:13.095Z,84.50
2024-04-18T02:43:56.035Z,85.40
2024-04-18T02:46:24.098Z,85.00
2024-04-18T02:49:11.787Z,84.20
2024-04-18T02:51:57.898Z,83.00
2024-04-18T02:54:43.726Z,82.40
2024-04-18T02:57:11.162Z,81.30
2024-04-18T02:59:38.311Z,80.80
2024-04-18T03:02:25.090Z,80.50
2024-04-18T03:04:52.261Z,80.00
2024-04-18T03:07:23.859Z,80.00
2024-04-18T03:09:51.093Z,79.90
2024-04-18T03:12:27.893Z,79.60
2024-04-18T03:15:20.757Z,79.50
2024-04-18T03:18:06.779Z,79.30
2024-04-18T03:20:35.263Z,79.40
2024-04-18T03:23:09.963Z,79.50
2024-04-18T03:25:55.803Z,80.00
2024-04-18T03:28:22.913Z,81.60
2024-04-18T03:30:50.129Z,82.10
2024-04-18T03:33:17.419Z,83.50
2024-04-18T03:35:44.747Z,84.30
2024-04-18T03:38:15.250Z,83.70
2024-04-18T03:40:42.502Z,84.30
2024-04-18T03:43:09.732Z,84.20
2024-04-18T03:45:36.895Z,84.00
2024-04-18T03:48:22.737Z,83.60
2024-04-18T03:50:49.936Z,82.70
2024-04-18T03:53:20.725Z,82.40
2024-04-18T03:55:47.846Z,82.70
2024-04-18T03:58:14.885Z,82.60
2024-04-18T04:00:51.879Z,82.60
2024-04-18T04:03:19.305Z,83.20
2024-04-18T04:05:46.527Z,83.60
2024-04-18T04:08:13.561Z,83.70
2024-04-18T04:10:44.003Z,83.40
2024-04-18T04:13:11.882Z,83.20
2024-04-18T04:15:42.593Z,83.30
2024-04-18T04:18:09.854Z,83.00
2024-04-18T04:20:43.558Z,82.70
2024-04-18T04:23:10.743Z,82.70
2024-04-18T04:25:56.775Z,82.90
2024-04-18T04:28:23.850Z,83.60
2024-04-18T04:30:51.235Z,83.90
2024-04-18T04:33:18.403Z,84.10
2024-04-18T04:35:45.453Z,84.00
2024-04-18T04:38:12.529Z,84.00
2024-04-18T04:40:39.676Z,83.80
2024-04-18T04:43:06.683Z,83.90
2024-04-18T04:45:33.815Z,83.70
2024-04-18T04:48:07.578Z,83.30
2024-04-18T04:51:00.761Z,83.10
2024-04-18T04:53:34.400Z,82.60
2024-04-18T04:56:01.593Z,82.30
2024-04-18T04:58:28.781Z,82.00
2024-04-18T05:00:57.229Z,81.60
2024-04-18T05:03:37.514Z,81.50
2024-04-18T05:06:24.623Z,80.50
2024-04-18T05:09:27.269Z,80.00
2024-04-18T05:11:54.486Z,79.30
2024-04-18T05:14:34.005Z,79.20
2024-04-18T05:17:21.706Z,78.60
2024-04-18T05:20:09.482Z,77.10
2024-04-18T05:22:36.589Z,76.10
2024-04-18T05:25:03.812Z,75.60
2024-04-18T05:27:30.890Z,75.00
2024-04-18T05:30:16.768Z,73.10
2024-04-18T05:32:44.016Z,72.50
2024-04-18T05:35:11.150Z,71.20
2024-04-18T05:37:38.161Z,69.80
2024-04-18T05:40:05.636Z,68.50
2024-04-18T05:42:32.747Z,67.80
2024-04-18T05:45:08.998Z,65.50
2024-04-18T05:47:56.061Z,64.40
2024-04-18T05:50:23.183Z,63.80
2024-04-18T05:52:50.492Z,63.90
2024-04-18T05:55:23.653Z,63.80
2024-04-18T05:57:50.890Z,62.40
2024-04-18T06:00:37.284Z,62.20
2024-04-18T06:03:05.401Z,61.90
2024-04-18T06:05:32.535Z,61.30
2024-04-18T06:08:14.973Z,61.00
2024-04-18T06:10:44.871Z,60.60
2024-04-18T06:13:24.011Z,60.20
2024-04-18T06:15:51.262Z,60.00
2024-04-18T06:18:18.492Z,59.20
2024-04-18T06:20:47.641Z,59.10
2024-04-18T06:23:15.470Z,59.30
2024-04-18T06:25:42.921Z,57.60
2024-04-18T06:28:12.389Z,57.90
2024-04-18T06:30:41.149Z,57.40
2024-04-18T06:33:11.674Z,57.30
2024-04-18T06:35:39.167Z,57.20
2024-04-18T06:38:07.587Z,56.90
2024-04-18T06:40:34.717Z,56.20
2024-04-18T06:43:01.941Z,56.20
2024-04-18T06:45:30.108Z,56.50
2024-04-18T06:47:57.559Z,56.20
2024-04-18T06:50:26.947Z,56.30
2024-04-18T06:52:54.657Z,55.90
2024-04-18T06:55:23.435Z,56.40
2024-04-18T06:57:50.882Z,55.60
2024-04-18T07:00:18.186Z,55.80
2024-04-18T07:02:45.982Z,55.90
2024-04-18T07:05:31.567Z,55.50
2024-04-18T07:08:17.359Z,54.30
2024-04-18T07:10:44.873Z,54.50
2024-04-18T07:13:27.778Z,54.40
2024-04-18T07:15:55.559Z,54.90
2024-04-18T07:18:41.453Z,54.90
2024-04-18T07:21:08.687Z,53.90
2024-04-18T07:23:38.988Z,53.80
2024-04-18T07:26:06.350Z,53.20
2024-04-18T07:28:33.760Z,52.60
2024-04-18T07:31:01.116Z,53.00
2024-04-18T07:33:29.013Z,53.00
2024-04-18T07:35:57.512Z,53.30
2024-04-18T07:38:28.662Z,53.40
2024-04-18T07:40:55.699Z,53.50
2024-04-18T07:43:22.865Z,53.10
2024-04-18T07:45:50.417Z,52.90
2024-04-18T07:48:17.638Z,51.60
2024-04-18T07:50:45.806Z,52.10
2024-04-18T07:53:12.770Z,51.80
2024-04-18T07:55:41.863Z,52.60
2024-04-18T07:58:09.316Z,52.30
2024-04-18T08:00:37.600Z,51.20
2024-04-18T08:03:06.571Z,51.20
2024-04-18T08:05:37.321Z,51.60
2024-04-18T08:08:08.758Z,51.10
2024-04-18T08:10:52.803Z,51.10
2024-04-18T08:13:29.884Z,50.90
2024-04-18T08:16:02.875Z,51.90
2024-04-18T08:18:30.338Z,52.90
2024-04-18T08:20:57.992Z,51.70
2024-04-18T08:23:25.503Z,50.00
2024-04-18T08:25:52.611Z,50.30
2024-04-18T08:28:19.730Z,50.20
2024-04-18T08:30:47.238Z,50.70
2024-04-18T08:33:14.604Z,49.70
2024-04-18T08:35:45.150Z,49.40
2024-04-18T08:38:13.554Z,49.00
2024-04-18T08:40:45.900Z,49.10
2024-04-18T08:43:13.830Z,49.50
2024-04-18T08:45:42.345Z,49.00
2024-04-18T08:48:12.126Z,49.30
2024-04-18T08:50:42.192Z,48.90
2024-04-18T08:53:11.109Z,49.00
2024-04-18T08:55:41.914Z,49.40
2024-04-18T08:58:13.155Z,49.30
2024-04-18T09:00:43.847Z,49.80
2024-04-18T09:03:12.311Z,49.30
2024-04-18T09:05:41.604Z,49.20
2024-04-18T09:08:14.199Z,49.40
2024-04-18T09:10:42.242Z,49.10
2024-04-18T09:13:10.808Z,48.90
2024-04-18T09:15:38.773Z,49.50
2024-04-18T09:18:07.879Z,50.20
2024-04-18T09:20:36.855Z,48.90
2024-04-18T09:23:05.347Z,48.50
2024-04-18T09:25:36.148Z,48.70
2024-04-18T09:28:05.844Z,47.40
2024-04-18T09:30:32.966Z,46.60
2024-04-18T09:33:05.529Z,46.10
2024-04-18T09:35:35.980Z,46.60
2024-04-18T09:38:09.307Z,49.80
2024-04-18T09:40:41.149Z,49.50
2024-04-18T09:43:42.582Z,48.80
2024-04-18T09:46:11.280Z,48.00
2024-04-18T09:48:38.959Z,45.50
2024-04-18T09:51:07.809Z,45.20
2024-04-18T09:53:38.250Z,43.80
2024-04-18T09:56:06.517Z,46.30
2024-04-18T09:58:34.740Z,43.90
2024-04-18T10:01:03.051Z,42.80
2024-04-18T10:03:30.354Z,43.30
2024-04-18T10:06:02.116Z,43.70
2024-04-18T10:08:33.255Z,42.80
2024-04-18T10:11:01.879Z,44.00
2024-04-18T10:13:30.057Z,42.60
2024-04-18T10:16:23.580Z,42.50
2024-04-18T10:18:53.612Z,42.90
2024-04-18T10:21:33.050Z,45.30
2024-04-18T10:24:06.378Z,45.30
2024-04-18T10:26:34.169Z,43.80
2024-04-18T10:29:01.460Z,44.30
2024-04-18T10:31:29.725Z,43.00
2024-04-18T10:33:58.475Z,45.30
2024-04-18T10:36:26.251Z,44.10
2024-04-18T10:38:53.625Z,45.60
2024-04-18T10:41:24.128Z,47.10
2024-04-18T10:43:51.734Z,44.10
2024-04-18T10:46:19.796Z,45.80
2024-04-18T10:48:52.099Z,43.90
2024-04-18T10:51:19.385Z,43.70
2024-04-18T10:53:46.768Z,42.60
2024-04-18T10:56:15.919Z,42.20
2024-04-18T10:58:43.458Z,43.10
2024-04-18T11:01:10.645Z,42.90
2024-04-18T11:03:38.170Z,42.40
2024-04-18T11:06:05.599Z,43.30
2024-04-18T11:08:35.200Z,43.30
2024-04-18T11:11:04.475Z,44.00
2024-04-18T11:13:31.842Z,44.00
2024-04-18T11:15:58.958Z,45.70
2024-04-18T11:18:26.384Z,43.80
2024-04-18T11:20:54.569Z,43.00
2024-04-18T11:23:35.414Z,41.20
2024-04-18T11:26:13.981Z,42.40
2024-04-18T11:28:41.608Z,41.70
2024-04-18T11:31:08.690Z,41.60
2024-04-18T11:33:36.456Z,42.40
2024-04-18T11:36:04.001Z,40.60
2024-04-18T11:38:33.649Z,40.80
2024-04-18T11:41:01.949Z,42.10
2024-04-18T11:43:29.163Z,44.50
2024-04-18T11:45:56.507Z,41.90
2024-04-18T11:48:23.882Z,39.90
2024-04-18T11:50:51.159Z,41.20
2024-04-18T11:53:18.299Z,42.70
2024-04-18T11:55:45.938Z,42.00
2024-04-18T11:58:28.366Z,42.10
2024-04-18T12:00:55.463Z,40.90
2024-04-18T12:03:39.501Z,40.80
2024-04-18T12:06:27.098Z,41.10
2024-04-18T12:08:55.251Z,40.40
2024-04-18T12:11:31.158Z,40.80
2024-04-18T12:14:13.974Z,41.80
2024-04-18T12:16:56.589Z,41.00
2024-04-18T12:19:44.232Z,42.10
2024-04-18T12:22:32.316Z,41.50
2024-04-18T12:25:18.485Z,39.80
2024-04-18T12:27:47.286Z,39.10
2024-04-18T12:30:33.361Z,39.40
2024-04-18T12:33:18.802Z,39.40
2024-04-18T12:35:46.325Z,42.00
2024-04-18T12:38:13.513Z,40.90
2024-04-18T12:40:44.341Z,40.00
2024-04-18T12:43:11.892Z,39.90
2024-04-18T12:46:10.120Z,39.60
2024-04-18T12:48:55.512Z,41.00
2024-04-18T12:51:23.387Z,40.50
2024-04-18T12:53:52.432Z,39.80
2024-04-18T12:56:40.592Z,38.10
2024-04-18T12:59:23.028Z,37.50
2024-04-18T13:01:50.105Z,37.50
2024-04-18T13:04:20.377Z,38.50
2024-04-18T13:06:47.658Z,38.80
2024-04-18T13:09:30.581Z,41.00
2024-04-18T13:12:03.231Z,40.60
2024-04-18T13:14:50.674Z,41.00
2024-04-18T13:17:18.514Z,40.40
2024-04-18T13:19:48.896Z,40.60
2024-04-18T13:22:16.291Z,42.20
2024-04-18T13:24:43.631Z,42.70
2024-04-18T13:27:31.040Z,40.90
2024-04-18T13:29:59.015Z,39.50
2024-04-18T13:32:32.244Z,40.00
2024-04-18T13:34:59.458Z,39.70
2024-04-18T13:37:26.570Z,39.10
2024-04-18T13:40:12.282Z,38.60
2024-04-18T13:42:55.541Z,38.80
2024-04-18T13:45:30.935Z,39.90
2024-04-18T13:47:58.577Z,39.30
2024-04-18T13:50:42.388Z,38.30
2024-04-18T13:53:09.452Z,39.20
2024-04-18T13:55:45.004Z,41.10
2024-04-18T13:58:12.510Z,41.20
2024-04-18T14:01:00.094Z,41.80
2024-04-18T14:03:27.507Z,40.20
2024-04-18T14:06:05.169Z,38.60
2024-04-18T14:08:40.172Z,39.10
2024-04-18T14:11:29.793Z,40.30
2024-04-18T14:14:10.468Z,41.60
2024-04-18T14:17:16.164Z,40.80
2024-04-18T14:20:02.191Z,40.00
2024-04-18T14:22:29.307Z,40.70
2024-04-18T14:24:56.415Z,41.10
2024-04-18T14:27:35.539Z,41.10
2024-04-18T14:30:03.185Z,41.60
2024-04-18T14:32:33.409Z,42.80
2024-04-18T14:35:03.434Z,43.30
2024-04-18T14:37:30.878Z,43.40
2024-04-18T14:39:58.027Z,42.20
2024-04-18T14:42:25.255Z,42.30
2024-04-18T14:44:53.702Z,43.00
2024-04-18T14:47:20.907Z,43.70
2024-04-18T14:50:02.135Z,43.30
2024-04-18T14:52:38.067Z,44.10
2024-04-18T14:55:28.694Z,44.10
2024-04-18T14:58:02.311Z,44.60
2024-04-18T15:00:52.999Z,44.20
2024-04-18T15:03:21.249Z,44.10
2024-04-18T15:05:57.827Z,44.40
2024-04-18T15:08:51.155Z,43.30
2024-04-18T15:11:25.214Z,43.30
2024-04-18T15:14:06.294Z,44.60
2024-04-18T15:16:34.055Z,44.30
2024-04-18T15:19:01.336Z,43.90
2024-04-18T15:21:48.591Z,43.30
2024-04-18T15:24:15.811Z,43.50
2024-04-18T15:27:03.728Z,44.60
2024-04-18T15:29:31.194Z,45.00
2024-04-18T15:32:17.035Z,45.50
2024-04-18T15:34:47.805Z,45.00
2024-04-18T15:37:34.943Z,45.10
2024-04-18T15:40:02.760Z,45.70
2024-04-18T15:42:29.834Z,46.10
2024-04-18T15:44:57.245Z,46.30
2024-04-18T15:47:31.175Z,46.20
2024-04-18T15:50:17.598Z,46.60
2024-04-18T15:52:47.723Z,47.10
2024-04-18T15:55:33.844Z,48.30
2024-04-18T15:58:19.820Z,48.90
2024-04-18T16:00:47.091Z,49.00
2024-04-18T16:03:32.872Z,49.50
2024-04-18T16:06:19.284Z,50.20
2024-04-18T16:09:06.373Z,51.70
2024-04-18T16:11:40.698Z,52.60
2024-04-18T16:14:28.650Z,53.20
2024-04-18T16:16:56.072Z,53.40
2024-04-18T16:19:38.034Z,53.70
2024-04-18T16:22:05.927Z,53.50
2024-04-18T16:24:49.013Z,53.30
2024-04-18T16:27:16.970Z,53.60
2024-04-18T16:29:58.407Z,53.70
2024-04-18T16:32:40.664Z,54.20
2024-04-18T16:35:08.408Z,54.20
2024-04-18T16:37:39.462Z,54.50
2024-04-18T16:40:16.019Z,54.30
2024-04-18T16:42:58.846Z,54.70
2024-04-18T16:45:26.144Z,54.80
2024-04-18T16:47:53.462Z,55.00
2024-04-18T16:50:20.575Z,55.20
2024-04-18T16:52:51.261Z,55.50
2024-04-18T16:55:36.894Z,55.70
2024-04-18T16:58:17.056Z,56.00
2024-04-18T17:00:58.418Z,56.50
2024-04-18T17:03:26.868Z,56.80
2024-04-18T17:06:04.869Z,56.80
2024-04-18T17:08:33.316Z,56.90
2024-04-18T17:11:00.953Z,57.10
2024-04-18T17:13:49.659Z,57.10
2024-04-18T17:16:16.943Z,57.30
2024-04-18T17:18:47.231Z,57.60
2024-04-18T17:21:14.884Z,57.70
2024-04-18T17:23:42.905Z,57.60
2024-04-18T17:26:10.182Z,57.40
2024-04-18T17:28:37.428Z,57.40
2024-04-18T17:31:05.551Z,57.70
2024-04-18T17:33:32.585Z,57.60
2024-04-18T17:36:02.671Z,57.60
2024-04-18T17:38:49.182Z,57.80
2024-04-18T17:41:32.549Z,58.10
2024-04-18T17:44:18.086Z,57.90
2024-04-18T17:46:58.844Z,58.20
2024-04-18T17:49:26.966Z,58.30
2024-04-18T17:51:55.317Z,58.10
2024-04-18T17:54:25.331Z,57.50
2024-04-18T17:56:52.531Z,57.40
2024-04-18T17:59:20.618Z,57.70
2024-04-18T18:01:47.892Z,56.80
2024-04-18T18:04:15.758Z,56.70
2024-04-18T18:06:43.001Z,56.90
2024-04-18T18:09:10.697Z,56.90
2024-04-18T18:11:37.992Z,56.70
2024-04-18T18:14:05.089Z,57.20
2024-04-18T18:16:50.707Z,56.60
2024-04-18T18:19:18.064Z,56.10
2024-04-18T18:21:57.393Z,54.80
2024-04-18T18:24:24.853Z,54.30
2024-04-18T18:26:52.036Z,53.90
2024-04-18T18:29:19.131Z,53.90
2024-04-18T18:32:05.784Z,54.30
2024-04-18T18:34:36.159Z,54.60
2024-04-18T18:37:03.474Z,54.50
2024-04-18T18:39:30.647Z,53.60
2024-04-18T18:41:57.826Z,53.60
2024-04-18T18:44:24.978Z,53.90
2024-04-18T18:46:52.181Z,54.00
2024-04-18T18:49:20.062Z,53.90
2024-04-18T18:51:47.416Z,53.60
2024-04-18T18:54:14.577Z,53.80
2024-04-18T18:56:41.844Z,54.10
2024-04-18T18:59:44.783Z,53.80
2024-04-18T19:02:12.266Z,54.00
2024-04-18T19:04:58.068Z,53.90
2024-04-18T19:07:25.204Z,52.90
2024-04-18T19:09:52.307Z,53.10
2024-04-18T19:12:19.507Z,52.90
2024-04-18T19:14:46.609Z,52.70
2024-04-18T19:17:13.718Z,53.20
2024-04-18T19:19:40.909Z,53.80
2024-04-18T19:22:08.210Z,53.30
2024-04-18T19:24:35.255Z,53.40
2024-04-18T19:27:02.737Z,53.70
2024-04-18T19:29:39.672Z,53.30
2024-04-18T19:32:20.841Z,53.00
2024-04-18T19:34:48.229Z,53.40
2024-04-18T19:37:15.611Z,53.40
2024-04-18T19:39:42.758Z,54.00
2024-04-18T19:42:09.984Z,54.40
2024-04-18T19:44:37.169Z,54.00
2024-04-18T19:47:06.710Z,54.20
2024-04-18T19:49:37.654Z,54.60
2024-04-18T19:52:08.113Z,54.80
2024-04-18T19:54:36.020Z,54.50
2024-04-18T19:57:04.038Z,54.80
2024-04-18T19:59:31.135Z,54.50
2024-04-18T20:01:58.227Z,54.60
2024-04-18T20:04:26.208Z,54.80
2024-04-18T20:06:54.224Z,54.80
2024-04-18T20:09:21.297Z,54.70
2024-04-18T20:11:48.424Z,54.80
2024-04-18T20:14:19.879Z,55.20
2024-04-18T20:16:47.096Z,55.20
2024-04-18T20:19:15.514Z,55.20
2024-04-18T20:21:44.459Z,55.10
2024-04-18T20:24:13.304Z,55.50
2024-04-18T20:27:00.710Z,55.40
2024-04-18T20:29:46.330Z,55.40
2024-04-18T20:32:23.447Z,55.50
2024-04-18T20:34:50.597Z,55.30
2024-04-18T20:37:18.557Z,55.20
2024-04-18T20:39:46.532Z,55.10
2024-04-18T20:42:14.058Z,55.10
2024-04-18T20:44:59.433Z,55.30
2024-04-18T20:47:27.118Z,55.10
2024-04-18T20:49:54.222Z,55.30
2024-04-18T20:52:21.403Z,55.40
2024-04-18T20:54:49.054Z,55.50
2024-04-18T20:57:16.394Z,55.50
2024-04-18T20:59:43.865Z,55.50
2024-04-18T21:02:11.078Z,55.60
2024-04-18T21:04:38.134Z,55.70
2024-04-18T21:07:05.326Z,55.90
2024-04-18T21:09:32.526Z,56.00
2024-04-18T21:11:59.480Z,56.00
2024-04-18T21:14:26.824Z,56.10
2024-04-18T21:16:53.998Z,56.70
2024-04-18T21:19:22.176Z,56.60
2024-04-18T21:21:49.652Z,56.50
2024-04-18T21:24:17.148Z,56.60
2024-04-18T21:26:50.155Z,56.70
2024-04-18T21:29:17.462Z,56.90
2024-04-18T21:31:44.620Z,56.60
2024-04-18T21:34:12.618Z,57.10
2024-04-18T21:36:40.095Z,57.70
2024-04-18T21:39:07.306Z,57.70
2024-04-18T21:41:39.252Z,58.10
2024-04-18T21:44:06.495Z,58.60
2024-04-18T21:46:33.748Z,58.20
2024-04-18T21:49:00.991Z,58.20
2024-04-18T21:51:28.806Z,58.30
2024-04-18T21:53:56.016Z,58.40
2024-04-18T21:56:23.123Z,58.40
2024-04-18T21:58:55.772Z,58.40
2024-04-18T22:01:38.309Z,58.40
2024-04-18T22:04:05.604Z,58.20
2024-04-18T22:06:33.462Z,58.20
2024-04-18T22:09:00.768Z,58.20
2024-04-18T22:11:27.870Z,58.20
2024-04-18T22:13:54.934Z,58.40
2024-04-18T22:16:21.950Z,58.90
2024-04-18T22:18:49.268Z,59.60
2024-04-18T22:21:35.127Z,59.70
2024-04-18T22:24:02.873Z,59.60
2024-04-18T22:26:31.038Z,59.80
2024-04-18T22:28:58.255Z,60.40
2024-04-18T22:31:25.362Z,60.20
2024-04-18T22:33:52.633Z,59.90
2024-04-18T22:36:20.354Z,61.20
2024-04-18T22:38:47.356Z,60.50
2024-04-18T22:41:14.453Z,60.30
2024-04-18T22:43:41.532Z,60.60
2024-04-18T22:46:08.533Z,60.40
2024-04-18T22:48:35.731Z,60.80
2024-04-18T22:51:05.383Z,61.50
2024-04-18T22:53:32.490Z,61.80
2024-04-18T22:56:00.349Z,61.80
2024-04-18T22:58:28.289Z,61.60
2024-04-18T23:01:04.938Z,61.70
2024-04-18T23:03:32.287Z,62.40
2024-04-18T23:06:15.853Z,62.80
2024-04-18T23:08:43.765Z,63.10
2024-04-18T23:11:11.129Z,63.30
2024-04-18T23:13:38.421Z,63.30
2024-04-18T23:16:06.136Z,63.40
2024-04-18T23:18:33.564Z,63.80
2024-04-18T23:21:00.712Z,64.50
2024-04-18T23:23:33.704Z,64.30
2024-04-18T23:26:00.919Z,64.00
2024-04-18T23:28:27.964Z,64.00
2024-04-18T23:30:54.994Z,64.20
2024-04-18T23:33:22.380Z,64.70
2024-04-18T23:35:49.465Z,65.10
2024-04-18T23:38:16.639Z,64.90
2024-04-18T23:40:43.771Z,64.90
2024-04-18T23:43:10.839Z,65.30
2024-04-18T23:45:37.995Z,65.60
2024-04-18T23:48:07.877Z,65.80
2024-04-18T23:50:34.979Z,65.80
2024-04-18T23:53:02.043Z,65.90
2024-04-18T23:55:29.217Z,66.40
2024-04-18T23:57:56.332Z,66.60
